Aérodrome :
LOGIN :

S'inscrire | Disclaimer

   EN    FR    IT 

 










Légende :    VFR   VFR Marginal   IFR   IFR Intensif   IFR Très Intensif
Visi : 
Plafond : 
>= 8 km
>= 3000ft
5 à 8 km
1000 à 3000 ft
1500m à 5 km
500 à 1000 ft
800 à 1500m
200 à 500 ft
< 800m
< 200 ft
Symboles :   Orages  Brouillard  Fortes neiges  Fortes précipitations  Vent > 20 kt
SIGMETs :   Divers  Orages  Givrage  Turbulence  Onde Orograph.  Cendres Volcan.







- Altitude de l'aérodrome : 1234 ft
- Code IATA : LUX


ELLX - Luxembourg Findel

DERNIER METAR :
  • 161520Z 26017G28KT 9999 SCT018 BKN030 05/02 Q0998 TEMPO 5000 SHRA BKN012TCU

METARs EXPIRÉS :
  • 161450Z 24017KT 9999 FEW020 BKN070 05/02 Q0997 NOSIG
  • 161420Z 25016KT 9999 SCT020 05/02 Q0997 NOSIG
  • 161350Z 25015KT 9999 SCT020 05/03 Q0997 NOSIG
  • 161320Z 26016G27KT 9999 SCT018 05/02 Q0997 TEMPO 27020G30KT
  • 161250Z 26019KT 9999 SCT017 BKN025 05/03 Q0998 TEMPO 27020G30KT

TAF TAF ELLX
Valide du 16 à 12h jusqu'au 17 à 18h UTC


161100Z 1612/1718 24015KT 9999 SCT015
TEMPO 1612/1712 27015G35KT 2000 SHSNRA SHGS BKN010CB
ATIS : +352 4798 27300
Météo : +352 4798 27010 / 27050
Pas de NOTAMs connus pour ce terrain.
1 SIGMET publié pour la FIR Brussels (EBBU) :
 
Turbulence forte
EBBU SIGMET 03 VALID 161200/161600 EBBR
EBBU BRUSSELS FIR SEV TURB FCST W OF LINE N5046 E00244-N5115 E00344 SFC/FL050 STNR NC=



MET'MAP, la Météo Aéronautique d'un coup d'oeil ! - Copyright ORBIFLY Décembre 2007 - Disclaimer

ORBIFLY MET'MAP TEAM :

Programmation & Développement : Alexandra Zaïnal
Conception & Développement : Baudouin d'Aumeries
Co-Programmation & Développement : Marc-Olivier Méhu
Soutien technique & logistique : Manuel Goepfert

Contact : metmap@orbifly.com




SOURCES & CREDITS :

   NOAA